createdAt,value
2017-10-30T00:00:20.360Z,0
2017-10-30T00:01:00.927Z,0
2017-10-30T00:01:41.387Z,0
2017-10-30T00:02:21.844Z,0
2017-10-30T00:03:02.295Z,0
2017-10-30T00:03:42.910Z,0
2017-10-30T00:04:23.424Z,0
2017-10-30T00:05:03.859Z,0
2017-10-30T00:05:44.329Z,0
2017-10-30T00:06:24.789Z,0
2017-10-30T00:07:05.339Z,0
2017-10-30T00:07:45.937Z,0
2017-10-30T00:08:26.391Z,0
2017-10-30T00:09:06.854Z,0
2017-10-30T00:09:47.315Z,0
2017-10-30T00:10:27.786Z,0
2017-10-30T00:11:08.276Z,0
2017-10-30T00:11:48.711Z,0
2017-10-30T00:12:29.165Z,0
2017-10-30T00:13:09.616Z,0
2017-10-30T00:13:50.073Z,0
2017-10-30T00:14:30.687Z,0
2017-10-30T00:15:11.114Z,0
2017-10-30T00:15:51.559Z,0
2017-10-30T00:16:32.018Z,0
2017-10-30T00:17:12.466Z,0
2017-10-30T00:17:52.923Z,0
2017-10-30T00:18:33.698Z,0
2017-10-30T00:19:14.153Z,0
2017-10-30T00:19:54.601Z,0
2017-10-30T00:20:35.049Z,0
2017-10-30T00:21:15.524Z,0
2017-10-30T00:21:56.194Z,0
2017-10-30T00:22:36.621Z,0
2017-10-30T00:23:17.070Z,0
2017-10-30T00:23:57.528Z,0
2017-10-30T00:24:37.982Z,0
2017-10-30T00:25:18.439Z,0
2017-10-30T00:25:58.903Z,0
2017-10-30T00:26:39.363Z,0
2017-10-30T00:27:19.809Z,0
2017-10-30T00:28:00.259Z,0
2017-10-30T00:28:40.702Z,0
2017-10-30T00:29:21.150Z,0
2017-10-30T00:30:01.609Z,0
2017-10-30T00:30:42.052Z,0
2017-10-30T00:31:22.514Z,0
2017-10-30T00:32:02.970Z,0
2017-10-30T00:32:43.424Z,0
2017-10-30T00:33:23.877Z,0
2017-10-30T00:34:04.331Z,0
2017-10-30T00:34:44.791Z,0
2017-10-30T00:35:25.239Z,0
2017-10-30T00:36:05.701Z,0
2017-10-30T00:36:46.165Z,0
2017-10-30T00:37:26.631Z,0
2017-10-30T00:38:07.080Z,0
2017-10-30T00:38:47.524Z,0
2017-10-30T00:39:27.987Z,0
2017-10-30T00:40:08.446Z,20
2017-10-30T00:40:48.905Z,20
2017-10-30T00:41:29.364Z,20
2017-10-30T00:42:09.816Z,20
2017-10-30T00:42:50.274Z,20
2017-10-30T00:43:30.725Z,20
2017-10-30T00:44:11.175Z,20
2017-10-30T00:44:51.634Z,20
2017-10-30T00:45:32.090Z,20
2017-10-30T00:46:12.564Z,16
2017-10-30T00:46:52.999Z,20
2017-10-30T00:47:33.453Z,20
2017-10-30T00:48:13.915Z,16
2017-10-30T00:48:54.378Z,20
2017-10-30T00:49:34.881Z,4
2017-10-30T00:50:15.253Z,4
2017-10-30T00:50:55.711Z,0
2017-10-30T00:51:36.168Z,0
2017-10-30T00:52:16.612Z,0
2017-10-30T00:52:57.061Z,0
2017-10-30T00:53:37.516Z,0
2017-10-30T00:54:17.973Z,0
2017-10-30T00:54:58.421Z,0
2017-10-30T00:55:38.874Z,0
2017-10-30T00:56:19.339Z,0
2017-10-30T00:56:59.809Z,0
2017-10-30T00:57:40.266Z,0
2017-10-30T00:58:20.713Z,0
2017-10-30T00:59:01.168Z,0
2017-10-30T00:59:41.609Z,0
2017-10-30T01:00:22.062Z,0
2017-10-30T01:01:02.510Z,0
2017-10-30T01:01:42.957Z,0
2017-10-30T01:02:23.414Z,0
2017-10-30T01:03:03.872Z,0
2017-10-30T01:03:44.326Z,0
2017-10-30T01:04:24.775Z,0
2017-10-30T01:05:05.238Z,0
2017-10-30T01:05:45.696Z,0
2017-10-30T01:06:26.160Z,0
2017-10-30T01:07:06.624Z,0
2017-10-30T01:07:47.075Z,0
2017-10-30T01:08:27.537Z,0
2017-10-30T01:09:07.989Z,0
2017-10-30T01:09:48.441Z,0
2017-10-30T01:10:28.892Z,0
2017-10-30T01:11:09.354Z,0
2017-10-30T01:11:49.815Z,0
2017-10-30T01:12:30.268Z,0
2017-10-30T01:13:10.720Z,0
2017-10-30T01:13:51.165Z,0
2017-10-30T01:14:31.624Z,0
2017-10-30T01:15:12.078Z,0
2017-10-30T01:15:52.536Z,0
2017-10-30T01:16:32.987Z,0
2017-10-30T01:17:13.442Z,0
2017-10-30T01:17:53.891Z,0
2017-10-30T01:18:34.339Z,0
2017-10-30T01:19:14.781Z,0
2017-10-30T01:19:55.229Z,0
2017-10-30T01:20:35.688Z,0
2017-10-30T01:21:16.148Z,0
2017-10-30T01:21:56.612Z,0
2017-10-30T01:22:37.061Z,0
2017-10-30T01:23:17.516Z,0
2017-10-30T01:23:57.956Z,0
2017-10-30T01:24:38.414Z,0
2017-10-30T01:25:18.883Z,0
2017-10-30T01:25:59.322Z,0
2017-10-30T01:26:39.766Z,0
2017-10-30T01:27:20.213Z,0
2017-10-30T01:28:00.659Z,0
2017-10-30T01:28:41.102Z,0
2017-10-30T01:29:21.556Z,0
2017-10-30T01:30:02.010Z,0
2017-10-30T01:30:42.449Z,0
2017-10-30T01:31:22.902Z,0
2017-10-30T01:32:03.370Z,0
2017-10-30T01:32:43.823Z,0
2017-10-30T01:33:24.288Z,0
2017-10-30T01:34:04.751Z,0
2017-10-30T01:34:45.216Z,0
2017-10-30T01:35:25.673Z,0
2017-10-30T01:36:06.124Z,0
2017-10-30T01:36:46.592Z,0
2017-10-30T01:37:27.052Z,0
2017-10-30T01:38:07.496Z,0
2017-10-30T01:38:47.955Z,0
2017-10-30T01:39:28.416Z,0
2017-10-30T01:40:08.872Z,0
2017-10-30T01:40:49.324Z,0
2017-10-30T01:41:29.778Z,0
2017-10-30T01:42:10.231Z,0
2017-10-30T01:42:50.702Z,0
2017-10-30T01:43:31.156Z,0
2017-10-30T01:44:11.612Z,0
2017-10-30T01:44:52.063Z,0
2017-10-30T01:45:32.525Z,0
2017-10-30T01:46:12.973Z,0
2017-10-30T01:46:53.434Z,0
2017-10-30T01:47:33.890Z,0
2017-10-30T01:48:14.341Z,0
2017-10-30T01:48:54.812Z,0
2017-10-30T01:49:35.270Z,0
2017-10-30T01:50:15.725Z,0
2017-10-30T01:50:56.180Z,0
2017-10-30T01:51:36.639Z,0
2017-10-30T01:52:17.092Z,0
2017-10-30T01:52:57.544Z,0
2017-10-30T01:53:38.003Z,0
2017-10-30T01:54:18.452Z,0
2017-10-30T01:54:58.896Z,0
2017-10-30T01:55:39.336Z,0
2017-10-30T01:56:19.785Z,0
2017-10-30T01:57:00.231Z,0
2017-10-30T01:57:40.692Z,0
2017-10-30T01:58:21.140Z,0
2017-10-30T01:59:01.623Z,0
2017-10-30T01:59:42.085Z,0
2017-10-30T02:00:22.549Z,0
2017-10-30T02:01:03.005Z,0
2017-10-30T02:01:43.463Z,0
2017-10-30T02:02:23.912Z,0
2017-10-30T02:03:04.377Z,0
2017-10-30T02:03:44.825Z,0
2017-10-30T02:04:25.293Z,0
2017-10-30T02:05:05.751Z,0
2017-10-30T02:05:46.205Z,0
2017-10-30T02:06:26.651Z,0
2017-10-30T02:07:07.109Z,0
2017-10-30T02:07:47.567Z,0
2017-10-30T02:08:28.040Z,0
2017-10-30T02:09:08.496Z,0
2017-10-30T02:09:48.940Z,0
2017-10-30T02:10:29.384Z,0
2017-10-30T02:11:09.846Z,0
2017-10-30T02:11:50.291Z,0
2017-10-30T02:12:30.743Z,0
2017-10-30T02:13:11.195Z,0
2017-10-30T02:13:51.651Z,0
2017-10-30T02:14:32.101Z,0
2017-10-30T02:15:12.556Z,0
2017-10-30T02:15:52.999Z,0
2017-10-30T02:16:33.454Z,0
2017-10-30T02:17:13.911Z,0
2017-10-30T02:17:54.381Z,0
2017-10-30T02:18:34.821Z,0
2017-10-30T02:19:15.277Z,0
2017-10-30T02:19:55.724Z,0
2017-10-30T02:20:36.175Z,0
2017-10-30T02:21:16.635Z,0
2017-10-30T02:21:57.090Z,0
2017-10-30T02:22:37.544Z,0
2017-10-30T02:23:17.999Z,0
2017-10-30T02:23:58.452Z,0
2017-10-30T02:24:38.907Z,0
2017-10-30T02:25:19.366Z,0
2017-10-30T02:25:59.860Z,0
2017-10-30T02:26:40.272Z,0
2017-10-30T02:27:20.712Z,0
2017-10-30T02:28:01.179Z,0
2017-10-30T02:28:41.633Z,0
2017-10-30T02:29:22.090Z,0
2017-10-30T02:30:02.551Z,0
2017-10-30T02:30:43.009Z,0
2017-10-30T02:31:23.459Z,0
2017-10-30T02:32:03.917Z,0
2017-10-30T02:32:44.371Z,0
2017-10-30T02:33:24.825Z,0
2017-10-30T02:34:05.279Z,0
2017-10-30T02:34:45.732Z,0
2017-10-30T02:35:26.185Z,0
2017-10-30T02:36:06.678Z,0
2017-10-30T02:36:47.126Z,0
2017-10-30T02:37:27.560Z,0
2017-10-30T02:38:08.022Z,0
2017-10-30T02:38:48.488Z,0
2017-10-30T02:39:28.942Z,0
2017-10-30T02:40:09.412Z,0
2017-10-30T02:40:49.864Z,0
2017-10-30T02:41:30.323Z,0
2017-10-30T02:42:10.771Z,0
2017-10-30T02:42:51.225Z,0
2017-10-30T02:43:31.677Z,0
2017-10-30T02:44:12.124Z,0
2017-10-30T02:44:52.569Z,0
2017-10-30T02:45:33.014Z,0
2017-10-30T02:46:13.470Z,0
2017-10-30T02:46:53.928Z,0
2017-10-30T02:47:34.374Z,0
2017-10-30T02:48:14.825Z,0
2017-10-30T02:48:55.264Z,0
2017-10-30T02:49:35.727Z,0
2017-10-30T02:50:16.173Z,0
2017-10-30T02:50:56.624Z,0
2017-10-30T02:51:37.078Z,0
2017-10-30T02:52:17.531Z,0
2017-10-30T02:52:57.994Z,0
2017-10-30T02:53:38.448Z,0
2017-10-30T02:54:18.899Z,0
2017-10-30T02:54:59.368Z,0
2017-10-30T02:55:39.822Z,0
2017-10-30T02:56:20.270Z,0
2017-10-30T02:57:00.737Z,0
2017-10-30T02:57:41.189Z,0
2017-10-30T02:58:21.637Z,0
2017-10-30T02:59:02.094Z,0
2017-10-30T02:59:42.534Z,0
2017-10-30T03:00:22.983Z,0
2017-10-30T03:01:03.431Z,0
2017-10-30T03:01:43.891Z,0
2017-10-30T03:02:24.343Z,0
2017-10-30T03:03:04.794Z,0
2017-10-30T03:03:45.249Z,0
2017-10-30T03:04:25.699Z,0
2017-10-30T03:05:06.164Z,0
2017-10-30T03:05:46.630Z,0
2017-10-30T03:06:27.103Z,0
2017-10-30T03:07:07.545Z,0
2017-10-30T03:07:48.000Z,0
2017-10-30T03:08:28.455Z,0
2017-10-30T03:09:08.911Z,0
2017-10-30T03:09:49.362Z,0
2017-10-30T03:10:29.814Z,0
2017-10-30T03:11:10.273Z,0
2017-10-30T03:11:50.721Z,0
2017-10-30T03:12:31.158Z,0
2017-10-30T03:13:11.619Z,0
2017-10-30T03:13:52.076Z,0
2017-10-30T03:14:32.519Z,0
2017-10-30T03:15:12.988Z,0
2017-10-30T03:15:53.426Z,0
2017-10-30T03:16:33.894Z,0
2017-10-30T03:17:14.345Z,0
2017-10-30T03:17:54.794Z,0
2017-10-30T03:18:35.239Z,0
2017-10-30T03:19:15.696Z,0
2017-10-30T03:19:56.149Z,0
2017-10-30T03:20:36.606Z,0
2017-10-30T03:21:17.080Z,0
2017-10-30T03:21:57.543Z,0
2017-10-30T03:22:37.970Z,0
2017-10-30T03:23:18.432Z,0
2017-10-30T03:23:58.877Z,0
2017-10-30T03:24:39.331Z,0
2017-10-30T03:25:19.793Z,0
2017-10-30T03:26:00.240Z,0
2017-10-30T03:26:40.700Z,0
2017-10-30T03:27:21.154Z,0
2017-10-30T03:28:01.628Z,0
2017-10-30T03:28:42.077Z,0
2017-10-30T03:29:22.524Z,0
2017-10-30T03:30:02.981Z,0
2017-10-30T03:30:43.438Z,0
2017-10-30T03:31:23.878Z,0
2017-10-30T03:32:04.326Z,0
2017-10-30T03:32:44.772Z,0
2017-10-30T03:33:25.224Z,0
2017-10-30T03:34:05.676Z,0
2017-10-30T03:34:46.131Z,0
2017-10-30T03:35:26.593Z,0
2017-10-30T03:36:07.049Z,0
2017-10-30T03:36:47.501Z,0
2017-10-30T03:37:27.958Z,0
2017-10-30T03:38:08.431Z,0
2017-10-30T03:38:48.865Z,0
2017-10-30T03:39:29.310Z,0
2017-10-30T03:40:09.766Z,0
2017-10-30T03:40:50.260Z,0
2017-10-30T03:41:30.723Z,0
2017-10-30T03:42:11.182Z,0
2017-10-30T03:42:51.633Z,0
2017-10-30T03:43:32.100Z,0
2017-10-30T03:44:12.558Z,0
2017-10-30T03:44:53.006Z,0
2017-10-30T03:45:33.451Z,0
2017-10-30T03:46:13.921Z,0
2017-10-30T03:46:54.400Z,0
2017-10-30T03:47:34.839Z,0
2017-10-30T03:48:15.291Z,0
2017-10-30T03:48:55.731Z,0
2017-10-30T03:49:36.179Z,0
2017-10-30T03:50:16.634Z,0
2017-10-30T03:50:57.102Z,0
2017-10-30T03:51:37.550Z,0
2017-10-30T03:52:18.016Z,0
2017-10-30T03:52:58.493Z,0
2017-10-30T03:53:38.918Z,0
2017-10-30T03:54:19.368Z,0
2017-10-30T03:54:59.825Z,0
2017-10-30T03:55:40.276Z,0
2017-10-30T03:56:20.721Z,0
2017-10-30T03:57:01.175Z,0
2017-10-30T03:57:41.621Z,0
2017-10-30T03:58:22.079Z,0
2017-10-30T03:59:02.529Z,0
2017-10-30T03:59:42.979Z,0
2017-10-30T04:00:23.429Z,0
2017-10-30T04:01:03.887Z,0
2017-10-30T04:01:44.336Z,0
2017-10-30T04:02:24.790Z,0
2017-10-30T04:03:05.249Z,0
2017-10-30T04:03:45.705Z,0
2017-10-30T04:04:26.154Z,0
2017-10-30T04:05:06.609Z,0
2017-10-30T04:05:47.068Z,0
2017-10-30T04:06:27.512Z,0
2017-10-30T04:07:07.977Z,0
2017-10-30T04:07:48.426Z,0
2017-10-30T04:08:28.877Z,0
2017-10-30T04:09:09.325Z,0
2017-10-30T04:09:49.769Z,0
2017-10-30T04:10:30.221Z,0
2017-10-30T04:11:10.678Z,0
2017-10-30T04:11:51.130Z,0
2017-10-30T04:12:31.579Z,0
2017-10-30T04:13:12.030Z,0
2017-10-30T04:13:52.481Z,0
2017-10-30T04:14:32.940Z,0
2017-10-30T04:15:13.404Z,0
2017-10-30T04:15:53.867Z,0
2017-10-30T04:16:34.331Z,0
2017-10-30T04:17:14.792Z,0
2017-10-30T04:17:55.253Z,0
2017-10-30T04:18:35.716Z,0
2017-10-30T04:19:16.160Z,0
2017-10-30T04:19:56.610Z,0
2017-10-30T04:20:37.078Z,0
2017-10-30T04:21:17.536Z,0
2017-10-30T04:21:57.978Z,0
2017-10-30T04:22:38.463Z,0
2017-10-30T04:23:18.904Z,0
2017-10-30T04:23:59.365Z,0
2017-10-30T04:24:39.811Z,0
2017-10-30T04:25:20.257Z,0
2017-10-30T04:26:00.705Z,0
2017-10-30T04:26:41.167Z,0
2017-10-30T04:27:21.617Z,0
2017-10-30T04:28:02.068Z,0
2017-10-30T04:28:42.533Z,0
2017-10-30T04:29:22.981Z,0
2017-10-30T04:30:03.432Z,0
2017-10-30T04:30:43.884Z,0
2017-10-30T04:31:24.332Z,0
2017-10-30T04:32:04.792Z,0
2017-10-30T04:32:45.238Z,0
2017-10-30T04:33:25.691Z,0
2017-10-30T04:34:06.151Z,0
2017-10-30T04:34:46.602Z,0
2017-10-30T04:35:27.060Z,0
2017-10-30T04:36:07.508Z,0
2017-10-30T04:36:47.968Z,0
2017-10-30T04:37:28.427Z,0
2017-10-30T04:38:08.881Z,0
2017-10-30T04:38:49.340Z,0
2017-10-30T04:39:29.787Z,0
2017-10-30T04:40:10.230Z,0
2017-10-30T04:40:50.689Z,0
2017-10-30T04:41:31.137Z,0
2017-10-30T04:42:11.594Z,0
2017-10-30T04:42:52.053Z,0
2017-10-30T04:43:32.492Z,0
2017-10-30T04:44:12.961Z,0
2017-10-30T04:44:53.419Z,0
2017-10-30T04:45:33.873Z,0
2017-10-30T04:46:14.326Z,0
2017-10-30T04:46:54.781Z,0
2017-10-30T04:47:35.253Z,0
2017-10-30T04:48:15.707Z,0
2017-10-30T04:48:56.167Z,0
2017-10-30T04:49:36.619Z,0
2017-10-30T04:50:17.089Z,0
2017-10-30T04:50:57.538Z,0
2017-10-30T04:51:37.986Z,0
2017-10-30T04:52:18.444Z,0
2017-10-30T04:52:58.896Z,0
2017-10-30T04:53:39.349Z,0
2017-10-30T04:54:19.806Z,0
2017-10-30T04:55:00.260Z,0
2017-10-30T04:55:40.713Z,0
2017-10-30T04:56:21.171Z,0
2017-10-30T04:57:01.628Z,0
2017-10-30T04:57:42.086Z,0
2017-10-30T04:58:22.536Z,0
2017-10-30T04:59:03.030Z,0
2017-10-30T04:59:43.485Z,0
2017-10-30T05:00:23.937Z,0
2017-10-30T05:01:04.393Z,0
2017-10-30T05:01:44.855Z,0
2017-10-30T05:02:25.345Z,0
2017-10-30T05:03:05.790Z,0
2017-10-30T05:03:46.237Z,0
2017-10-30T05:04:26.694Z,0
2017-10-30T05:05:07.153Z,0
2017-10-30T05:05:47.608Z,0
2017-10-30T05:06:28.065Z,0
2017-10-30T05:07:08.530Z,0
2017-10-30T05:07:48.975Z,0
2017-10-30T05:08:29.424Z,0
2017-10-30T05:09:09.883Z,0
2017-10-30T05:09:50.357Z,0
2017-10-30T05:10:30.820Z,0
2017-10-30T05:11:11.284Z,0
2017-10-30T05:11:51.736Z,0
2017-10-30T05:12:32.204Z,0
2017-10-30T05:13:12.666Z,0
2017-10-30T05:13:53.117Z,0
2017-10-30T05:14:33.586Z,0
2017-10-30T05:15:14.066Z,0
2017-10-30T05:15:54.519Z,0
2017-10-30T05:16:34.990Z,0
2017-10-30T05:17:15.442Z,0
2017-10-30T05:17:55.902Z,0
2017-10-30T05:18:36.352Z,0
2017-10-30T05:19:16.809Z,0
2017-10-30T05:19:57.275Z,0
2017-10-30T05:20:37.734Z,0
2017-10-30T05:21:18.190Z,0
2017-10-30T05:21:58.637Z,0
2017-10-30T05:22:39.085Z,0
2017-10-30T05:23:19.548Z,0
2017-10-30T05:24:00.007Z,0
2017-10-30T05:24:40.460Z,0
2017-10-30T05:25:20.915Z,0
2017-10-30T05:26:01.369Z,0
2017-10-30T05:26:41.816Z,0
2017-10-30T05:27:22.264Z,0
2017-10-30T05:28:02.725Z,0
2017-10-30T05:28:43.177Z,0
2017-10-30T05:29:23.631Z,0
2017-10-30T05:30:04.089Z,0
2017-10-30T05:30:44.573Z,0
2017-10-30T05:31:25.025Z,0
2017-10-30T05:32:05.495Z,0
2017-10-30T05:32:45.914Z,0
2017-10-30T05:33:26.364Z,0
2017-10-30T05:34:06.853Z,0
2017-10-30T05:34:47.302Z,0
2017-10-30T05:35:27.758Z,0
2017-10-30T05:36:08.194Z,0
2017-10-30T05:36:48.644Z,0
2017-10-30T05:37:29.100Z,0
2017-10-30T05:38:09.607Z,0
2017-10-30T05:38:50.073Z,0
2017-10-30T05:39:30.519Z,0
2017-10-30T05:40:10.962Z,0
2017-10-30T05:40:51.411Z,0
2017-10-30T05:41:31.891Z,0
2017-10-30T05:42:12.311Z,0
2017-10-30T05:42:52.755Z,0
2017-10-30T05:43:33.443Z,0
2017-10-30T05:44:13.874Z,0
2017-10-30T05:44:54.334Z,0
2017-10-30T05:45:34.785Z,0
2017-10-30T05:46:15.302Z,0
2017-10-30T05:46:55.759Z,0
2017-10-30T05:47:36.232Z,0
2017-10-30T05:48:16.675Z,0
2017-10-30T05:48:57.134Z,0
2017-10-30T05:49:37.609Z,0
2017-10-30T05:50:18.062Z,0
2017-10-30T05:50:58.507Z,0
2017-10-30T05:51:38.959Z,0
2017-10-30T05:52:19.408Z,0
2017-10-30T05:52:59.866Z,0
2017-10-30T05:53:40.327Z,0
2017-10-30T05:54:20.786Z,0
2017-10-30T05:55:01.240Z,0
2017-10-30T05:55:41.716Z,0
2017-10-30T05:56:22.167Z,0
2017-10-30T05:57:02.615Z,0
2017-10-30T05:57:43.063Z,0
2017-10-30T05:58:23.498Z,0
2017-10-30T05:59:03.946Z,0
2017-10-30T05:59:44.400Z,0
2017-10-30T06:00:24.855Z,0
2017-10-30T06:01:05.302Z,0
2017-10-30T06:01:45.747Z,0
2017-10-30T06:02:26.215Z,0
2017-10-30T06:03:06.643Z,0
2017-10-30T06:03:47.094Z,0
2017-10-30T06:04:27.611Z,0
2017-10-30T06:05:08.077Z,0
2017-10-30T06:05:48.547Z,0
2017-10-30T06:06:28.988Z,0
2017-10-30T06:07:09.463Z,0
2017-10-30T06:07:49.927Z,0
2017-10-30T06:08:30.404Z,0
2017-10-30T06:09:10.852Z,0
2017-10-30T06:09:51.310Z,0
2017-10-30T06:10:31.746Z,0
2017-10-30T06:11:12.199Z,0
2017-10-30T06:11:52.651Z,0
2017-10-30T06:12:33.097Z,0
2017-10-30T06:13:13.553Z,0
2017-10-30T06:13:53.999Z,0
2017-10-30T06:14:34.854Z,0
2017-10-30T06:15:15.288Z,0
2017-10-30T06:15:55.739Z,0
2017-10-30T06:16:36.184Z,0
2017-10-30T06:17:16.632Z,0
2017-10-30T06:17:57.088Z,0
2017-10-30T06:18:37.544Z,0
2017-10-30T06:19:18.003Z,0
2017-10-30T06:19:58.452Z,0
2017-10-30T06:20:38.912Z,0
2017-10-30T06:21:19.367Z,0
2017-10-30T06:21:59.821Z,0
2017-10-30T06:22:40.270Z,0
2017-10-30T06:23:20.708Z,0
2017-10-30T06:24:01.156Z,0
2017-10-30T06:24:41.594Z,0
2017-10-30T06:25:22.054Z,0
2017-10-30T06:26:02.485Z,0
2017-10-30T06:26:42.926Z,0
2017-10-30T06:27:23.374Z,0
2017-10-30T06:28:03.836Z,0
2017-10-30T06:28:44.284Z,0
2017-10-30T06:29:24.734Z,0
2017-10-30T06:30:05.205Z,0
2017-10-30T06:30:45.666Z,0
2017-10-30T06:31:26.128Z,0
2017-10-30T06:32:06.588Z,0
2017-10-30T06:32:47.047Z,0
2017-10-30T06:33:27.496Z,0
2017-10-30T06:34:07.979Z,0
2017-10-30T06:34:48.393Z,0
2017-10-30T06:35:28.850Z,0
2017-10-30T06:36:09.306Z,0
2017-10-30T06:36:49.766Z,0
2017-10-30T06:37:30.229Z,0
2017-10-30T06:38:10.690Z,0
2017-10-30T06:38:51.132Z,0
2017-10-30T06:39:31.598Z,0
2017-10-30T06:40:12.062Z,0
2017-10-30T06:40:52.525Z,0
2017-10-30T06:41:32.982Z,0
2017-10-30T06:42:13.442Z,0
2017-10-30T06:42:53.901Z,0
2017-10-30T06:43:34.339Z,0
2017-10-30T06:44:14.795Z,0
2017-10-30T06:44:55.249Z,4
2017-10-30T06:45:35.715Z,4
2017-10-30T06:46:16.172Z,4
2017-10-30T06:46:56.647Z,4
2017-10-30T06:47:37.092Z,4
2017-10-30T06:48:17.543Z,4
2017-10-30T06:48:58.000Z,0
2017-10-30T06:49:38.459Z,0
2017-10-30T06:50:19.029Z,0
2017-10-30T06:50:59.481Z,0
2017-10-30T06:51:39.946Z,0
2017-10-30T06:52:20.404Z,0
2017-10-30T06:53:00.841Z,0
2017-10-30T06:53:41.298Z,0
2017-10-30T06:54:21.746Z,0
2017-10-30T06:55:02.193Z,0
2017-10-30T06:55:42.680Z,0
2017-10-30T06:56:23.124Z,0
2017-10-30T06:57:03.585Z,0
2017-10-30T06:57:44.030Z,0
2017-10-30T06:58:24.491Z,0
2017-10-30T06:59:04.936Z,0
2017-10-30T06:59:45.395Z,0
2017-10-30T07:00:25.853Z,0
2017-10-30T07:01:06.306Z,0
2017-10-30T07:01:46.760Z,0
2017-10-30T07:02:27.212Z,0
2017-10-30T07:03:07.675Z,0
2017-10-30T07:03:48.130Z,0
2017-10-30T07:04:28.572Z,0
2017-10-30T07:05:09.031Z,4
2017-10-30T07:05:49.487Z,4
2017-10-30T07:06:29.934Z,4
2017-10-30T07:07:10.392Z,4
2017-10-30T07:07:50.844Z,4
2017-10-30T07:08:31.298Z,4
2017-10-30T07:09:11.754Z,4
2017-10-30T07:09:52.220Z,4
2017-10-30T07:10:32.675Z,4
2017-10-30T07:11:13.143Z,4
2017-10-30T07:11:53.596Z,4
2017-10-30T07:12:34.048Z,4
2017-10-30T07:13:14.505Z,4
2017-10-30T07:13:54.955Z,4
2017-10-30T07:14:35.421Z,4
2017-10-30T07:15:15.877Z,4
2017-10-30T07:15:56.330Z,4
2017-10-30T07:16:36.773Z,0
2017-10-30T07:17:17.228Z,0
2017-10-30T07:17:57.684Z,0
2017-10-30T07:18:38.156Z,4
2017-10-30T07:19:18.582Z,4
2017-10-30T07:19:59.027Z,4
2017-10-30T07:20:39.480Z,4
2017-10-30T07:21:19.938Z,4
2017-10-30T07:22:00.396Z,4
2017-10-30T07:22:40.852Z,4
2017-10-30T07:23:21.316Z,4
2017-10-30T07:24:01.771Z,4
2017-10-30T07:24:42.225Z,4
2017-10-30T07:25:22.678Z,4
2017-10-30T07:26:03.134Z,0
2017-10-30T07:26:43.593Z,4
2017-10-30T07:27:24.051Z,4
2017-10-30T07:28:04.517Z,4
2017-10-30T07:28:44.979Z,4
2017-10-30T07:29:25.437Z,4
2017-10-30T07:30:05.888Z,4
2017-10-30T07:30:46.348Z,4
2017-10-30T07:31:26.795Z,4
2017-10-30T07:32:07.244Z,4
2017-10-30T07:32:47.699Z,8
2017-10-30T07:33:28.156Z,8
2017-10-30T07:34:08.614Z,4
2017-10-30T07:34:49.064Z,4
2017-10-30T07:35:29.522Z,8
2017-10-30T07:36:09.979Z,8
2017-10-30T07:36:50.429Z,8
2017-10-30T07:37:30.877Z,8
2017-10-30T07:38:11.351Z,8
2017-10-30T07:38:51.806Z,8
2017-10-30T07:39:32.261Z,8
2017-10-30T07:40:12.709Z,12
2017-10-30T07:40:53.171Z,8
2017-10-30T07:41:33.627Z,8
2017-10-30T07:42:14.078Z,8
2017-10-30T07:42:54.534Z,12
2017-10-30T07:43:34.999Z,8
2017-10-30T07:44:15.441Z,12
2017-10-30T07:44:55.889Z,8
2017-10-30T07:45:36.338Z,12
2017-10-30T07:46:16.799Z,12
2017-10-30T07:46:57.253Z,12
2017-10-30T07:47:37.712Z,8
2017-10-30T07:48:18.166Z,12
2017-10-30T07:48:58.631Z,12
2017-10-30T07:49:39.113Z,12
2017-10-30T07:50:19.562Z,12
2017-10-30T07:51:00.017Z,12
2017-10-30T07:51:40.469Z,12
2017-10-30T07:52:20.934Z,16
2017-10-30T07:53:01.390Z,16
2017-10-30T07:53:41.871Z,12
2017-10-30T07:54:22.312Z,12
2017-10-30T07:55:02.755Z,12
2017-10-30T07:55:43.225Z,16
2017-10-30T07:56:23.690Z,12
2017-10-30T07:57:04.143Z,12
2017-10-30T07:57:44.591Z,16
2017-10-30T07:58:25.054Z,32
2017-10-30T07:59:05.501Z,36
2017-10-30T07:59:45.980Z,16
2017-10-30T08:00:26.438Z,16
2017-10-30T08:01:06.910Z,12
2017-10-30T08:01:47.347Z,12
2017-10-30T08:02:27.796Z,12
2017-10-30T08:03:08.264Z,8
2017-10-30T08:03:48.725Z,8
2017-10-30T08:04:29.169Z,12
2017-10-30T08:05:09.620Z,8
2017-10-30T08:05:50.060Z,8
2017-10-30T08:06:30.506Z,8
2017-10-30T08:07:10.959Z,8
2017-10-30T08:07:51.421Z,8
2017-10-30T08:08:31.867Z,8
2017-10-30T08:09:12.315Z,8
2017-10-30T08:09:52.788Z,8
2017-10-30T08:10:33.242Z,8
2017-10-30T08:11:13.690Z,8
2017-10-30T08:11:54.146Z,8
2017-10-30T08:12:34.613Z,8
2017-10-30T08:13:15.068Z,8
2017-10-30T08:13:55.527Z,12
2017-10-30T08:14:35.999Z,8
2017-10-30T08:15:16.456Z,8
2017-10-30T08:15:56.943Z,12
2017-10-30T08:16:37.369Z,12
2017-10-30T08:17:17.851Z,12
2017-10-30T08:17:58.307Z,8
2017-10-30T08:18:38.764Z,8
2017-10-30T08:19:19.212Z,8
2017-10-30T08:19:59.648Z,8
2017-10-30T08:20:40.101Z,12
2017-10-30T08:21:20.548Z,12
2017-10-30T08:22:01.011Z,12
2017-10-30T08:22:41.469Z,8
2017-10-30T08:23:21.917Z,12
2017-10-30T08:24:02.372Z,8
2017-10-30T08:24:42.825Z,8
2017-10-30T08:25:23.281Z,12
2017-10-30T08:26:03.758Z,12
2017-10-30T08:26:44.212Z,8
2017-10-30T08:27:24.676Z,12
2017-10-30T08:28:05.138Z,12
2017-10-30T08:28:45.594Z,8
2017-10-30T08:29:26.041Z,8
2017-10-30T08:30:06.518Z,8
2017-10-30T08:30:46.968Z,8
2017-10-30T08:31:27.413Z,8
2017-10-30T08:32:07.875Z,12
2017-10-30T08:32:48.337Z,12
2017-10-30T08:33:28.806Z,8
2017-10-30T08:34:09.263Z,8
2017-10-30T08:34:49.725Z,8
2017-10-30T08:35:30.170Z,8
2017-10-30T08:36:10.626Z,8
2017-10-30T08:36:51.074Z,12
2017-10-30T08:37:31.542Z,12
2017-10-30T08:38:12.002Z,12
2017-10-30T08:38:52.450Z,12
2017-10-30T08:41:20.445Z,28
2017-10-30T08:42:00.900Z,28
2017-10-30T08:42:41.400Z,44
2017-10-30T08:43:21.850Z,76
2017-10-30T08:44:02.311Z,104
2017-10-30T08:44:42.746Z,84
2017-10-30T08:45:23.217Z,52
2017-10-30T08:46:03.656Z,44
2017-10-30T08:46:44.107Z,32
2017-10-30T08:47:24.580Z,24
2017-10-30T08:48:05.011Z,20
2017-10-30T08:48:45.457Z,20
2017-10-30T08:49:25.909Z,16
2017-10-30T08:50:06.392Z,16
2017-10-30T08:50:46.802Z,16
2017-10-30T08:51:27.237Z,12
2017-10-30T08:52:07.690Z,12
2017-10-30T08:52:48.149Z,12
2017-10-30T08:53:28.584Z,12
2017-10-30T08:54:09.046Z,12
2017-10-30T08:54:49.535Z,16
2017-10-30T08:55:29.928Z,12
2017-10-30T08:56:10.385Z,16
2017-10-30T08:56:50.840Z,44
2017-10-30T08:57:31.292Z,40
2017-10-30T08:58:11.757Z,36
2017-10-30T08:58:52.203Z,36
2017-10-30T08:59:32.659Z,1008
2017-10-30T09:00:13.114Z,1016
2017-10-30T09:00:53.560Z,912
2017-10-30T09:01:34.011Z,856
2017-10-30T09:02:14.469Z,880
2017-10-30T09:02:54.929Z,904
2017-10-30T09:03:35.392Z,864
2017-10-30T09:04:15.847Z,924
2017-10-30T09:04:56.295Z,900
2017-10-30T09:05:36.749Z,880
2017-10-30T09:06:17.229Z,864
2017-10-30T09:06:57.666Z,884
2017-10-30T09:07:38.126Z,876
2017-10-30T09:08:18.580Z,844
2017-10-30T09:08:59.029Z,772
2017-10-30T09:09:39.486Z,724
2017-10-30T09:10:19.941Z,680
2017-10-30T09:11:00.391Z,644
2017-10-30T09:11:40.851Z,596
2017-10-30T09:12:21.326Z,556
2017-10-30T09:13:01.806Z,536
2017-10-30T09:13:42.243Z,508
2017-10-30T09:14:22.710Z,492
2017-10-30T09:15:03.156Z,500
2017-10-30T09:15:43.605Z,500
2017-10-30T09:16:24.053Z,484
2017-10-30T09:17:04.511Z,488
2017-10-30T09:17:44.970Z,488
2017-10-30T09:18:25.424Z,472
2017-10-30T09:19:05.872Z,456
2017-10-30T09:19:46.327Z,448
2017-10-30T09:20:26.787Z,432
2017-10-30T09:21:07.242Z,420
2017-10-30T09:21:47.688Z,396
2017-10-30T09:22:28.147Z,364
2017-10-30T09:23:08.602Z,356
2017-10-30T09:23:49.052Z,376
2017-10-30T09:25:09.943Z,444
2017-10-30T09:25:50.392Z,440
2017-10-30T09:26:30.845Z,404
2017-10-30T09:27:11.482Z,376
2017-10-30T09:27:51.934Z,364
2017-10-30T09:28:32.392Z,364
2017-10-30T09:29:12.839Z,368
2017-10-30T09:29:53.292Z,364
2017-10-30T09:30:33.753Z,364
2017-10-30T09:31:14.206Z,356
2017-10-30T09:31:54.655Z,360
2017-10-30T09:32:35.114Z,372
2017-10-30T09:33:15.549Z,384
2017-10-30T09:33:56.020Z,400
2017-10-30T09:34:36.467Z,416
2017-10-30T09:35:16.942Z,436
2017-10-30T09:35:57.381Z,472
2017-10-30T09:36:37.837Z,496
2017-10-30T09:37:18.299Z,516
2017-10-30T09:37:58.766Z,544
2017-10-30T09:38:39.226Z,592
2017-10-30T09:39:19.673Z,664
2017-10-30T09:40:00.132Z,712
2017-10-30T09:40:40.585Z,748
2017-10-30T09:41:21.039Z,780
2017-10-30T09:42:01.491Z,792
2017-10-30T09:42:41.929Z,812
2017-10-30T09:43:22.391Z,1012
2017-10-30T09:44:02.847Z,1216
2017-10-30T09:44:43.294Z,1152
2017-10-30T09:45:23.748Z,1052
2017-10-30T09:46:04.223Z,1092
2017-10-30T09:46:44.654Z,1392
2017-10-30T09:47:25.113Z,1448
2017-10-30T09:48:05.569Z,1256
2017-10-30T09:48:46.016Z,1204
2017-10-30T09:49:26.471Z,1120
2017-10-30T09:50:06.925Z,1164
2017-10-30T09:50:47.384Z,1196
2017-10-30T09:51:27.838Z,1244
2017-10-30T09:52:08.377Z,1268
2017-10-30T09:52:48.842Z,1300
2017-10-30T09:53:29.294Z,1512
2017-10-30T09:54:09.758Z,1600